createdAt,value
2018-12-24T00:02:14.190Z,11.70
2018-12-24T00:04:41.606Z,11.60
2018-12-24T00:07:09.341Z,11.70
2018-12-24T00:09:36.672Z,11.80
2018-12-24T00:12:07.132Z,11.80
2018-12-24T00:14:34.178Z,11.70
2018-12-24T00:17:01.965Z,11.80
2018-12-24T00:19:29.250Z,11.70
2018-12-24T00:21:56.561Z,11.60
2018-12-24T00:24:23.979Z,11.60
2018-12-24T00:26:51.676Z,11.60
2018-12-24T00:29:19.287Z,11.70
2018-12-24T00:31:46.701Z,11.60
2018-12-24T00:34:14.074Z,11.70
2018-12-24T00:36:41.380Z,11.70
2018-12-24T00:39:08.797Z,11.70
2018-12-24T00:41:36.115Z,11.70
2018-12-24T00:44:03.498Z,11.80
2018-12-24T00:46:30.831Z,11.80
2018-12-24T00:48:58.198Z,11.80
2018-12-24T00:51:25.485Z,11.80
2018-12-24T00:53:53.285Z,11.80
2018-12-24T00:56:20.600Z,11.80
2018-12-24T00:58:48.003Z,11.70
2018-12-24T01:01:15.425Z,11.80
2018-12-24T01:03:42.792Z,12.00
2018-12-24T01:06:10.093Z,12.00
2018-12-24T01:08:37.410Z,12.00
2018-12-24T01:11:04.707Z,12.00
2018-12-24T01:13:32.060Z,11.90
2018-12-24T01:15:59.678Z,12.00
2018-12-24T01:18:27.086Z,12.10
2018-12-24T01:20:54.477Z,12.00
2018-12-24T01:23:21.947Z,12.00
2018-12-24T01:25:49.313Z,12.00
2018-12-24T01:28:17.354Z,11.90
2018-12-24T01:30:44.636Z,11.90
2018-12-24T01:33:14.431Z,11.80
2018-12-24T01:35:41.820Z,11.80
2018-12-24T01:38:09.478Z,11.70
2018-12-24T01:40:36.890Z,11.70
2018-12-24T01:43:04.292Z,11.80
2018-12-24T01:45:31.599Z,11.70
2018-12-24T01:47:59.007Z,11.80
2018-12-24T01:50:26.311Z,11.70
2018-12-24T01:52:53.639Z,11.60
2018-12-24T01:55:21.054Z,11.60
2018-12-24T01:57:48.347Z,11.60
2018-12-24T02:00:15.762Z,11.80
2018-12-24T02:02:43.064Z,11.70
2018-12-24T02:05:10.474Z,11.70
2018-12-24T02:07:37.921Z,11.60
2018-12-24T02:10:05.292Z,11.60
2018-12-24T02:12:32.916Z,11.60
2018-12-24T02:15:00.346Z,11.70
2018-12-24T02:17:27.646Z,11.70
2018-12-24T02:19:54.982Z,11.80
2018-12-24T02:22:22.378Z,11.70
2018-12-24T02:24:49.788Z,11.80
2018-12-24T02:27:17.073Z,11.80
2018-12-24T02:29:44.406Z,11.90
2018-12-24T02:32:12.092Z,11.80
2018-12-24T02:34:39.510Z,11.70
2018-12-24T02:37:06.921Z,11.70
2018-12-24T02:39:35.150Z,11.70
2018-12-24T02:42:02.538Z,11.60
2018-12-24T02:44:30.158Z,11.50
2018-12-24T02:46:57.535Z,11.70
2018-12-24T02:49:24.867Z,11.90
2018-12-24T02:51:52.471Z,11.80
2018-12-24T02:54:19.814Z,11.70
2018-12-24T02:56:47.138Z,11.60
2018-12-24T02:59:15.919Z,11.70
2018-12-24T03:01:43.256Z,11.80
2018-12-24T03:04:10.651Z,11.20
2018-12-24T03:06:38.032Z,10.60
2018-12-24T03:09:05.970Z,10.30
2018-12-24T03:11:33.466Z,10.40
2018-12-24T03:14:00.877Z,10.10
2018-12-24T03:16:28.246Z,10.00
2018-12-24T03:18:55.512Z,10.10
2018-12-24T03:21:22.931Z,10.10
2018-12-24T03:23:50.350Z,9.90
2018-12-24T03:26:17.740Z,9.70
2018-12-24T03:28:45.094Z,9.70
2018-12-24T03:31:12.432Z,9.80
2018-12-24T03:33:39.809Z,9.70
2018-12-24T03:36:07.087Z,9.80
2018-12-24T03:38:34.481Z,9.90
2018-12-24T03:41:01.764Z,9.70
2018-12-24T03:43:29.162Z,9.90
2018-12-24T03:45:56.512Z,9.90
2018-12-24T03:48:23.931Z,9.80
2018-12-24T03:50:51.281Z,9.90
2018-12-24T03:53:18.696Z,10.20
2018-12-24T03:55:46.114Z,10.00
2018-12-24T03:58:13.712Z,9.70
2018-12-24T04:00:41.113Z,9.80
2018-12-24T04:03:08.500Z,9.90
2018-12-24T04:05:35.758Z,9.80
2018-12-24T04:08:03.254Z,10.00
2018-12-24T04:10:30.620Z,10.40
2018-12-24T04:12:57.900Z,10.70
2018-12-24T04:15:25.175Z,10.60
2018-12-24T04:17:52.586Z,10.60
2018-12-24T04:20:19.970Z,10.30
2018-12-24T04:22:47.556Z,10.10
2018-12-24T04:25:14.938Z,10.30
2018-12-24T04:27:42.335Z,10.40
2018-12-24T04:30:09.716Z,10.20
2018-12-24T04:32:36.998Z,10.00
2018-12-24T04:35:04.260Z,10.00
2018-12-24T04:37:31.638Z,10.10
2018-12-24T04:39:58.936Z,10.10
2018-12-24T04:42:26.224Z,10.10
2018-12-24T04:44:53.624Z,10.10
2018-12-24T04:47:20.989Z,10.10
2018-12-24T04:49:48.379Z,10.10
2018-12-24T04:52:15.761Z,9.80
2018-12-24T04:54:43.074Z,9.70
2018-12-24T04:57:10.478Z,9.80
2018-12-24T04:59:37.837Z,9.80
2018-12-24T05:02:05.107Z,9.80
2018-12-24T05:04:32.385Z,10.00
2018-12-24T05:06:59.679Z,9.90
2018-12-24T05:09:27.057Z,10.10
2018-12-24T05:11:54.339Z,9.70
2018-12-24T05:14:21.747Z,9.60
2018-12-24T05:16:49.104Z,9.60
2018-12-24T05:19:16.406Z,9.70
2018-12-24T05:21:43.691Z,9.60
2018-12-24T05:24:10.955Z,9.30
2018-12-24T05:26:38.247Z,9.40
2018-12-24T05:29:06.158Z,9.80
2018-12-24T05:31:33.519Z,10.10
2018-12-24T05:34:01.108Z,10.10
2018-12-24T05:36:28.416Z,10.10
2018-12-24T05:38:55.701Z,10.00
2018-12-24T05:41:23.011Z,10.00
2018-12-24T05:43:50.387Z,10.00
2018-12-24T05:46:17.693Z,10.10
2018-12-24T05:48:44.974Z,10.20
2018-12-24T05:51:12.404Z,9.90
2018-12-24T05:53:39.693Z,9.80
2018-12-24T05:56:07.016Z,9.60
2018-12-24T05:58:34.408Z,9.50
2018-12-24T06:01:01.831Z,9.50
2018-12-24T06:03:29.209Z,9.50
2018-12-24T06:05:56.517Z,9.50
2018-12-24T06:08:23.881Z,9.40
2018-12-24T06:10:51.168Z,9.40
2018-12-24T06:13:18.448Z,9.40
2018-12-24T06:15:45.750Z,9.10
2018-12-24T06:18:13.144Z,9.40
2018-12-24T06:20:40.503Z,9.60
2018-12-24T06:23:07.786Z,9.80
2018-12-24T06:25:35.172Z,9.70
2018-12-24T06:28:02.468Z,9.40
2018-12-24T06:30:29.806Z,9.40
2018-12-24T06:32:57.084Z,9.20
2018-12-24T06:35:24.361Z,9.20
2018-12-24T06:37:51.655Z,9.30
2018-12-24T06:40:19.047Z,9.40
2018-12-24T06:42:46.365Z,9.40
2018-12-24T06:45:13.667Z,9.50
2018-12-24T06:47:41.074Z,9.50
2018-12-24T06:50:08.465Z,9.30
2018-12-24T06:52:36.188Z,9.20
2018-12-24T06:55:03.621Z,9.10
2018-12-24T06:57:30.919Z,9.10
2018-12-24T06:59:58.598Z,9.30
2018-12-24T07:02:26.390Z,9.30
2018-12-24T07:04:53.834Z,9.30
2018-12-24T07:07:21.521Z,9.20
2018-12-24T07:09:48.793Z,9.10
2018-12-24T07:12:16.184Z,9.00
2018-12-24T07:14:43.504Z,8.90
2018-12-24T07:17:10.888Z,8.90
2018-12-24T07:19:38.176Z,8.80
2018-12-24T07:22:05.517Z,9.10
2018-12-24T07:24:32.918Z,9.00
2018-12-24T07:27:00.348Z,8.90
2018-12-24T07:29:27.807Z,8.40
2018-12-24T07:31:55.205Z,8.00
2018-12-24T07:34:22.767Z,8.00
2018-12-24T07:36:50.123Z,7.70
2018-12-24T07:39:17.551Z,7.60
2018-12-24T07:41:44.975Z,7.30
2018-12-24T07:44:12.417Z,7.50
2018-12-24T07:46:40.937Z,7.80
2018-12-24T07:49:08.531Z,8.00
2018-12-24T07:51:35.993Z,8.00
2018-12-24T07:54:03.588Z,8.20
2018-12-24T07:56:30.997Z,8.50
2018-12-24T07:58:58.411Z,8.80
2018-12-24T08:01:25.806Z,9.00
2018-12-24T08:03:53.222Z,9.00
2018-12-24T08:06:20.809Z,9.10
2018-12-24T08:08:48.233Z,9.30
2018-12-24T08:11:15.623Z,9.40
2018-12-24T08:13:43.042Z,9.50
2018-12-24T08:16:10.477Z,9.50
2018-12-24T08:18:37.929Z,9.60
2018-12-24T08:21:05.577Z,9.60
2018-12-24T08:23:32.972Z,9.70
2018-12-24T08:26:00.452Z,9.50
2018-12-24T08:28:27.878Z,9.50
2018-12-24T08:30:55.314Z,9.40
2018-12-24T08:33:22.752Z,9.40
2018-12-24T08:35:50.127Z,9.50
2018-12-24T08:38:17.434Z,9.50
2018-12-24T08:40:44.909Z,9.50
2018-12-24T08:43:12.347Z,9.50
2018-12-24T08:45:39.801Z,9.70
2018-12-24T08:48:07.236Z,9.80
2018-12-24T08:50:34.703Z,9.90
2018-12-24T08:53:02.071Z,10.00
2018-12-24T08:55:29.412Z,10.10
2018-12-24T08:57:56.707Z,10.20
2018-12-24T09:00:24.133Z,10.20
2018-12-24T09:02:51.559Z,10.30
2018-12-24T09:05:18.992Z,10.20
2018-12-24T09:07:46.432Z,10.20
2018-12-24T09:10:13.882Z,10.10
2018-12-24T09:12:41.340Z,10.10
2018-12-24T09:15:08.977Z,10.00
2018-12-24T09:17:36.702Z,9.90
2018-12-24T09:20:04.672Z,9.80
2018-12-24T09:22:31.963Z,9.20
2018-12-24T09:24:59.709Z,9.30
2018-12-24T09:27:27.352Z,9.50
2018-12-24T09:29:54.632Z,9.60
2018-12-24T09:32:21.950Z,9.70
2018-12-24T09:34:49.343Z,9.60
2018-12-24T09:37:16.808Z,9.60
2018-12-24T09:39:44.212Z,9.60
2018-12-24T09:42:11.676Z,9.40
2018-12-24T09:44:39.264Z,9.40
2018-12-24T09:47:06.714Z,9.50
2018-12-24T09:49:34.149Z,9.30
2018-12-24T09:52:01.885Z,9.40
2018-12-24T09:54:29.275Z,9.60
2018-12-24T09:56:56.725Z,9.80
2018-12-24T09:59:24.052Z,9.70
2018-12-24T10:01:51.493Z,9.90
2018-12-24T10:04:29.228Z,9.90
2018-12-24T10:07:01.541Z,9.90
2018-12-24T10:09:28.961Z,9.90
2018-12-24T10:11:56.374Z,9.80
2018-12-24T10:14:23.791Z,9.80
2018-12-24T10:16:51.234Z,9.80
2018-12-24T10:19:18.626Z,9.80
2018-12-24T10:21:46.054Z,9.90
2018-12-24T10:24:13.656Z,9.80
2018-12-24T10:26:41.108Z,9.70
2018-12-24T10:29:08.835Z,9.90
2018-12-24T10:31:36.285Z,10.00
2018-12-24T10:34:03.706Z,10.20
2018-12-24T10:36:31.208Z,10.20
2018-12-24T10:38:58.617Z,10.10
2018-12-24T10:41:26.946Z,10.30
2018-12-24T10:43:54.527Z,10.40
2018-12-24T10:46:22.794Z,10.50
2018-12-24T10:48:50.158Z,10.60
2018-12-24T10:51:17.578Z,10.70
2018-12-24T10:53:45.117Z,10.80
2018-12-24T10:56:12.533Z,10.80
2018-12-24T10:58:39.994Z,10.80
2018-12-24T11:01:07.332Z,10.80
2018-12-24T11:03:34.782Z,10.90
2018-12-24T11:06:02.190Z,10.90
2018-12-24T11:08:29.675Z,11.00
2018-12-24T11:10:57.101Z,11.10
2018-12-24T11:13:24.534Z,11.00
2018-12-24T11:15:52.255Z,11.00
2018-12-24T11:18:19.586Z,11.00
2018-12-24T11:20:46.893Z,10.90
2018-12-24T11:23:14.255Z,11.00
2018-12-24T11:25:41.679Z,11.10
2018-12-24T11:28:09.127Z,11.30
2018-12-24T11:30:38.851Z,11.40
2018-12-24T11:33:06.588Z,11.60
2018-12-24T11:35:33.928Z,11.70
2018-12-24T11:38:01.327Z,11.80
2018-12-24T11:40:28.658Z,12.00
2018-12-24T11:42:56.304Z,12.00
2018-12-24T11:45:23.760Z,12.00
2018-12-24T11:47:51.213Z,12.00
2018-12-24T11:50:18.613Z,12.10
2018-12-24T11:52:45.957Z,12.00
2018-12-24T11:55:13.393Z,12.00
2018-12-24T11:57:40.731Z,11.70
2018-12-24T12:00:08.208Z,11.50
2018-12-24T12:02:35.647Z,11.50
2018-12-24T12:05:03.084Z,11.50
2018-12-24T12:07:30.502Z,11.50
2018-12-24T12:09:57.853Z,11.40
2018-12-24T12:12:25.219Z,11.40
2018-12-24T12:14:52.572Z,11.40
2018-12-24T12:17:20.011Z,11.40
2018-12-24T12:19:47.389Z,11.20
2018-12-24T12:22:14.783Z,11.20
2018-12-24T12:24:42.279Z,11.20
2018-12-24T12:27:09.876Z,11.20
2018-12-24T12:29:37.288Z,11.20
2018-12-24T12:32:04.766Z,11.30
2018-12-24T12:34:32.221Z,11.30
2018-12-24T12:36:59.583Z,11.40
2018-12-24T12:39:26.916Z,11.40
2018-12-24T12:41:54.388Z,11.50
2018-12-24T12:44:21.855Z,11.50
2018-12-24T12:46:49.385Z,11.50
2018-12-24T12:49:16.799Z,11.50
2018-12-24T12:51:44.518Z,11.40
2018-12-24T12:54:12.257Z,11.50
2018-12-24T12:56:39.737Z,11.70
2018-12-24T12:59:07.065Z,11.70
2018-12-24T13:01:34.803Z,11.90
2018-12-24T13:04:02.185Z,12.10
2018-12-24T13:06:29.686Z,12.30
2018-12-24T13:08:57.414Z,12.30
2018-12-24T13:11:24.858Z,12.30
2018-12-24T13:13:52.190Z,12.20
2018-12-24T13:16:19.638Z,12.10
2018-12-24T13:18:47.023Z,12.10
2018-12-24T13:21:14.414Z,12.10
2018-12-24T13:23:41.844Z,12.10
2018-12-24T13:26:09.305Z,12.00
2018-12-24T13:28:36.782Z,11.90
2018-12-24T13:31:04.259Z,11.80
2018-12-24T13:33:31.799Z,11.50
2018-12-24T13:35:59.532Z,11.50
2018-12-24T13:38:28.350Z,11.40
2018-12-24T13:40:55.736Z,11.40
2018-12-24T13:43:23.256Z,11.50
2018-12-24T13:45:51.060Z,11.30
2018-12-24T13:48:18.579Z,11.20
2018-12-24T13:50:45.991Z,11.30
2018-12-24T13:53:13.380Z,11.40
2018-12-24T13:55:40.871Z,11.30
2018-12-24T13:58:08.362Z,11.20
2018-12-24T14:00:35.851Z,11.30
2018-12-24T14:03:03.290Z,11.10
2018-12-24T14:05:31.062Z,11.00
2018-12-24T14:07:58.537Z,11.00
2018-12-24T14:10:25.970Z,11.00
2018-12-24T14:12:53.842Z,11.10
2018-12-24T14:15:21.368Z,11.10
2018-12-24T14:17:48.818Z,11.00
2018-12-24T14:20:16.261Z,11.00
2018-12-24T14:22:43.668Z,10.90
2018-12-24T14:25:11.151Z,10.80
2018-12-24T14:27:38.566Z,10.80
2018-12-24T14:30:07.470Z,10.80
2018-12-24T14:32:34.907Z,10.80
2018-12-24T14:35:02.339Z,10.80
2018-12-24T14:37:29.726Z,10.80
2018-12-24T14:39:57.082Z,10.80
2018-12-24T14:42:24.438Z,10.80
2018-12-24T14:44:51.925Z,10.80
2018-12-24T14:47:19.375Z,10.80
2018-12-24T14:49:46.839Z,10.80
2018-12-24T14:52:14.295Z,10.70
2018-12-24T14:54:41.751Z,10.60
2018-12-24T14:57:09.192Z,10.50
2018-12-24T14:59:36.662Z,10.50
2018-12-24T15:02:04.093Z,10.40
2018-12-24T15:04:31.545Z,10.30
2018-12-24T15:06:58.953Z,10.30
2018-12-24T15:09:26.464Z,10.40
2018-12-24T15:11:54.269Z,10.40
2018-12-24T15:14:21.696Z,10.20
2018-12-24T15:16:49.233Z,10.00
2018-12-24T15:19:16.614Z,10.10
2018-12-24T15:21:43.994Z,10.20
2018-12-24T15:24:11.531Z,10.20
2018-12-24T15:26:39.062Z,10.10
2018-12-24T15:29:06.515Z,10.10
2018-12-24T15:31:33.974Z,10.00
2018-12-24T15:34:01.422Z,10.00
2018-12-24T15:36:28.753Z,10.00
2018-12-24T15:38:56.231Z,10.00
2018-12-24T15:41:23.664Z,9.90
2018-12-24T15:43:51.116Z,10.00
2018-12-24T15:46:18.577Z,10.00
2018-12-24T15:48:46.000Z,9.90
2018-12-24T15:51:13.518Z,9.90
2018-12-24T15:53:43.869Z,9.90
2018-12-24T15:56:11.318Z,10.00
2018-12-24T15:58:38.785Z,10.00
2018-12-24T16:01:06.123Z,10.00
2018-12-24T16:03:36.877Z,10.00
2018-12-24T16:06:03.132Z,10.00
2018-12-24T16:08:30.903Z,9.90
2018-12-24T16:10:58.353Z,9.90
2018-12-24T16:13:25.815Z,9.70
2018-12-24T16:15:53.256Z,9.70
2018-12-24T16:18:20.686Z,9.70
2018-12-24T16:20:48.096Z,9.70
2018-12-24T16:23:15.521Z,9.60
2018-12-24T16:25:42.943Z,9.60
2018-12-24T16:28:10.385Z,9.60
2018-12-24T16:30:37.709Z,9.60
2018-12-24T16:33:05.130Z,9.70
2018-12-24T16:35:32.560Z,9.70
2018-12-24T16:38:00.281Z,9.60
2018-12-24T16:40:27.740Z,9.50
2018-12-24T16:42:55.110Z,9.50
2018-12-24T16:45:22.462Z,9.50
2018-12-24T16:47:49.893Z,9.40
2018-12-24T16:50:17.230Z,9.40
2018-12-24T16:52:44.596Z,9.40
2018-12-24T16:55:12.005Z,9.40
2018-12-24T16:57:41.214Z,9.40
2018-12-24T17:00:08.706Z,9.30
2018-12-24T17:02:36.128Z,9.30
2018-12-24T17:05:03.735Z,9.10
2018-12-24T17:07:31.117Z,9.10
2018-12-24T17:09:58.533Z,9.10
2018-12-24T17:12:25.905Z,9.10
2018-12-24T17:14:53.335Z,9.10
2018-12-24T17:17:21.214Z,9.10
2018-12-24T17:19:48.622Z,9.10
2018-12-24T17:22:16.310Z,9.00
2018-12-24T17:24:43.618Z,8.90
2018-12-24T17:27:11.350Z,9.00
2018-12-24T17:29:38.750Z,8.90
2018-12-24T17:32:06.085Z,8.90
2018-12-24T17:34:33.511Z,8.80
2018-12-24T17:37:00.925Z,8.90
2018-12-24T17:39:28.287Z,8.80
2018-12-24T17:41:56.610Z,8.80
2018-12-24T17:44:24.010Z,8.70
2018-12-24T17:46:51.388Z,8.60
2018-12-24T17:49:18.808Z,8.60
2018-12-24T17:51:46.223Z,8.50
2018-12-24T17:54:13.574Z,8.50
2018-12-24T17:56:41.002Z,8.40
2018-12-24T17:59:08.327Z,8.40
2018-12-24T18:01:35.731Z,8.40
2018-12-24T18:04:03.139Z,8.30
2018-12-24T18:06:30.543Z,8.30
2018-12-24T18:08:57.861Z,8.30
2018-12-24T18:11:25.323Z,8.30
2018-12-24T18:13:53.027Z,8.30
2018-12-24T18:16:20.419Z,8.30
2018-12-24T18:18:47.835Z,8.30
2018-12-24T18:21:15.278Z,8.30
2018-12-24T18:23:42.731Z,8.30
2018-12-24T18:26:10.140Z,8.30
2018-12-24T18:28:37.899Z,8.30
2018-12-24T18:31:05.210Z,8.30
2018-12-24T18:33:32.888Z,8.30
2018-12-24T18:36:00.276Z,8.30
2018-12-24T18:38:27.678Z,8.30
2018-12-24T18:40:55.053Z,8.30
2018-12-24T18:43:22.490Z,8.30
2018-12-24T18:45:49.908Z,8.30
2018-12-24T18:48:17.369Z,8.40
2018-12-24T18:50:44.800Z,8.50
2018-12-24T18:53:12.288Z,8.60
2018-12-24T18:55:39.641Z,8.50
2018-12-24T18:58:07.060Z,8.40
2018-12-24T19:00:34.496Z,8.50
2018-12-24T19:03:01.941Z,8.60
2018-12-24T19:05:29.359Z,8.60
2018-12-24T19:07:57.088Z,8.60
2018-12-24T19:10:24.807Z,8.60
2018-12-24T19:12:52.251Z,8.60
2018-12-24T19:15:19.666Z,8.60
2018-12-24T19:17:47.264Z,8.60
2018-12-24T19:20:14.685Z,8.60
2018-12-24T19:22:42.257Z,8.60
2018-12-24T19:25:09.667Z,8.60
2018-12-24T19:27:37.099Z,8.60
2018-12-24T19:30:05.618Z,8.60
2018-12-24T19:32:33.164Z,8.40
2018-12-24T19:35:00.488Z,8.40
2018-12-24T19:37:27.973Z,8.50
2018-12-24T19:39:55.688Z,8.40
2018-12-24T19:42:23.179Z,8.20
2018-12-24T19:44:50.569Z,8.20
2018-12-24T19:47:17.918Z,8.10
2018-12-24T19:49:45.301Z,8.00
2018-12-24T19:52:12.737Z,7.90
2018-12-24T19:54:40.201Z,7.90
2018-12-24T19:57:07.725Z,7.70
2018-12-24T19:59:36.402Z,7.60
2018-12-24T20:02:03.891Z,7.50
2018-12-24T20:04:31.323Z,7.50
2018-12-24T20:06:58.808Z,7.70
2018-12-24T20:09:26.242Z,7.60
2018-12-24T20:11:53.696Z,7.80
2018-12-24T20:14:21.414Z,7.80
2018-12-24T20:16:48.914Z,7.90
2018-12-24T20:19:16.616Z,7.90
2018-12-24T20:21:44.038Z,7.80
2018-12-24T20:24:11.568Z,7.90
2018-12-24T20:26:39.436Z,7.90
2018-12-24T20:29:07.154Z,7.80
2018-12-24T20:31:34.501Z,7.80
2018-12-24T20:34:02.253Z,7.70
2018-12-24T20:36:29.593Z,7.80
2018-12-24T20:38:57.074Z,7.70
2018-12-24T20:41:24.601Z,7.60
2018-12-24T20:43:52.416Z,7.60
2018-12-24T20:46:19.768Z,7.50
2018-12-24T20:48:47.205Z,7.50
2018-12-24T20:51:16.217Z,7.40
2018-12-24T20:53:43.976Z,7.40
2018-12-24T20:56:11.428Z,7.30
2018-12-24T20:58:38.909Z,7.20
2018-12-24T21:01:06.432Z,7.20
2018-12-24T21:03:33.856Z,7.20
2018-12-24T21:06:01.339Z,7.10
2018-12-24T21:08:29.131Z,7.10
2018-12-24T21:10:56.568Z,7.20
2018-12-24T21:13:24.059Z,7.20
2018-12-24T21:15:51.590Z,7.20
2018-12-24T21:18:19.366Z,7.30
2018-12-24T21:20:46.843Z,7.30
2018-12-24T21:23:14.289Z,7.30
2018-12-24T21:25:41.743Z,7.40
2018-12-24T21:28:09.493Z,7.40
2018-12-24T21:30:36.930Z,7.40
2018-12-24T21:33:04.363Z,7.50
2018-12-24T21:35:31.845Z,7.60
2018-12-24T21:37:59.299Z,7.70
2018-12-24T21:40:26.689Z,7.80
2018-12-24T21:42:54.659Z,7.90
2018-12-24T21:45:22.399Z,7.90
2018-12-24T21:47:52.636Z,7.90
2018-12-24T21:50:20.354Z,8.00
2018-12-24T21:52:47.911Z,8.00
2018-12-24T21:55:15.693Z,8.10
2018-12-24T21:57:43.462Z,8.20
2018-12-24T22:00:10.938Z,8.10
2018-12-24T22:02:38.395Z,8.10
2018-12-24T22:05:05.837Z,8.00
2018-12-24T22:07:33.282Z,7.90
2018-12-24T22:10:00.717Z,8.00
2018-12-24T22:12:28.071Z,8.00
2018-12-24T22:14:55.533Z,8.00
2018-12-24T22:17:22.978Z,8.10
2018-12-24T22:19:50.339Z,8.10
2018-12-24T22:22:17.839Z,8.10
2018-12-24T22:24:45.390Z,8.20
2018-12-24T22:27:14.726Z,8.20
2018-12-24T22:29:42.485Z,8.20
2018-12-24T22:32:09.935Z,8.10
2018-12-24T22:34:37.327Z,8.20
2018-12-24T22:37:05.087Z,8.20
2018-12-24T22:39:32.458Z,8.20
2018-12-24T22:41:59.920Z,8.10
2018-12-24T22:44:27.305Z,8.00
2018-12-24T22:46:54.986Z,8.10
2018-12-24T22:49:22.388Z,8.00
2018-12-24T22:51:50.023Z,8.00
2018-12-24T22:54:17.635Z,8.00
2018-12-24T22:56:45.522Z,8.00
2018-12-24T22:59:13.045Z,8.00
2018-12-24T23:01:40.861Z,8.00
2018-12-24T23:04:08.417Z,7.80
2018-12-24T23:06:35.829Z,7.70
2018-12-24T23:09:05.647Z,7.80
2018-12-24T23:11:33.267Z,7.90
2018-12-24T23:14:01.058Z,7.90
2018-12-24T23:16:28.425Z,7.90
2018-12-24T23:18:55.751Z,8.00
2018-12-24T23:21:23.389Z,7.90
2018-12-24T23:23:50.706Z,7.90
2018-12-24T23:26:18.098Z,8.00
2018-12-24T23:28:45.383Z,8.10
2018-12-24T23:31:12.796Z,8.10
2018-12-24T23:33:40.288Z,8.10
2018-12-24T23:36:07.707Z,8.10
2018-12-24T23:38:35.135Z,8.10
2018-12-24T23:41:02.879Z,8.10
2018-12-24T23:43:30.290Z,8.10
2018-12-24T23:45:57.622Z,8.10
2018-12-24T23:48:25.096Z,8.00
2018-12-24T23:50:52.538Z,8.10
2018-12-24T23:53:20.224Z,8.20
2018-12-24T23:55:47.854Z,8.10
2018-12-24T23:58:15.263Z,8.10
